sensor_id;sensor_type;location;lat;lon;timestamp;P1;durP1;ratioP1;P2;durP2;ratioP2
5125;SDS011;63008;53.112;8.896;2023-03-30T00:00:52;31.93;;;25.03;;
5125;SDS011;63008;53.112;8.896;2023-03-30T00:02:53;31.33;;;23.47;;
5125;SDS011;63008;53.112;8.896;2023-03-30T00:04:54;33.30;;;25.30;;
5125;SDS011;63008;53.112;8.896;2023-03-30T00:06:55;31.70;;;24.30;;
5125;SDS011;63008;53.112;8.896;2023-03-30T00:08:56;29.33;;;25.90;;
5125;SDS011;63008;53.112;8.896;2023-03-30T00:10:58;30.60;;;24.47;;
5125;SDS011;63008;53.112;8.896;2023-03-30T00:13:04;36.13;;;26.07;;
5125;SDS011;63008;53.112;8.896;2023-03-30T00:15:06;30.73;;;22.60;;
5125;SDS011;63008;53.112;8.896;2023-03-30T00:17:08;32.77;;;24.43;;
5125;SDS011;63008;53.112;8.896;2023-03-30T00:19:09;29.60;;;24.10;;
5125;SDS011;63008;53.112;8.896;2023-03-30T00:21:11;29.03;;;23.60;;
5125;SDS011;63008;53.112;8.896;2023-03-30T00:23:11;29.73;;;23.73;;
5125;SDS011;63008;53.112;8.896;2023-03-30T00:25:13;30.17;;;22.90;;
5125;SDS011;63008;53.112;8.896;2023-03-30T00:27:16;29.50;;;21.17;;
5125;SDS011;63008;53.112;8.896;2023-03-30T00:29:17;28.53;;;21.67;;
5125;SDS011;63008;53.112;8.896;2023-03-30T00:31:18;24.13;;;20.13;;
5125;SDS011;63008;53.112;8.896;2023-03-30T00:33:19;25.77;;;21.00;;
5125;SDS011;63008;53.112;8.896;2023-03-30T00:35:20;25.63;;;20.90;;
5125;SDS011;63008;53.112;8.896;2023-03-30T00:37:21;27.60;;;22.43;;
5125;SDS011;63008;53.112;8.896;2023-03-30T00:39:23;33.10;;;22.23;;
5125;SDS011;63008;53.112;8.896;2023-03-30T00:41:26;27.07;;;21.00;;
5125;SDS011;63008;53.112;8.896;2023-03-30T00:43:27;26.77;;;20.70;;
5125;SDS011;63008;53.112;8.896;2023-03-30T00:45:29;26.27;;;20.70;;
5125;SDS011;63008;53.112;8.896;2023-03-30T00:47:31;26.93;;;20.63;;
5125;SDS011;63008;53.112;8.896;2023-03-30T00:49:34;28.77;;;20.57;;
5125;SDS011;63008;53.112;8.896;2023-03-30T00:51:36;25.87;;;19.50;;
5125;SDS011;63008;53.112;8.896;2023-03-30T00:53:40;25.83;;;19.20;;
5125;SDS011;63008;53.112;8.896;2023-03-30T00:55:45;25.27;;;20.27;;
5125;SDS011;63008;53.112;8.896;2023-03-30T00:57:48;29.00;;;20.73;;
5125;SDS011;63008;53.112;8.896;2023-03-30T00:59:50;27.13;;;20.03;;
5125;SDS011;63008;53.112;8.896;2023-03-30T01:01:53;23.87;;;18.97;;
5125;SDS011;63008;53.112;8.896;2023-03-30T01:03:56;24.47;;;20.23;;
5125;SDS011;63008;53.112;8.896;2023-03-30T01:06:03;26.83;;;19.67;;
5125;SDS011;63008;53.112;8.896;2023-03-30T01:08:08;25.70;;;20.03;;
5125;SDS011;63008;53.112;8.896;2023-03-30T01:10:13;30.53;;;19.77;;
5125;SDS011;63008;53.112;8.896;2023-03-30T01:12:14;22.70;;;19.50;;
5125;SDS011;63008;53.112;8.896;2023-03-30T01:14:15;26.73;;;19.90;;
5125;SDS011;63008;53.112;8.896;2023-03-30T01:16:26;23.87;;;18.77;;
5125;SDS011;63008;53.112;8.896;2023-03-30T01:18:39;29.07;;;19.80;;
5125;SDS011;63008;53.112;8.896;2023-03-30T01:23:20;22.77;;;19.23;;
5125;SDS011;63008;53.112;8.896;2023-03-30T01:28:16;28.93;;;18.60;;
5125;SDS011;63008;53.112;8.896;2023-03-30T01:30:51;21.60;;;17.33;;
5125;SDS011;63008;53.112;8.896;2023-03-30T01:38:28;22.40;;;17.73;;
5125;SDS011;63008;53.112;8.896;2023-03-30T01:40:55;21.37;;;16.13;;
5125;SDS011;63008;53.112;8.896;2023-03-30T01:43:16;24.90;;;18.07;;
5125;SDS011;63008;53.112;8.896;2023-03-30T01:45:44;24.70;;;18.27;;
5125;SDS011;63008;53.112;8.896;2023-03-30T01:47:52;20.93;;;17.23;;
5125;SDS011;63008;53.112;8.896;2023-03-30T01:49:59;21.43;;;17.23;;
5125;SDS011;63008;53.112;8.896;2023-03-30T01:52:09;25.30;;;17.53;;
5125;SDS011;63008;53.112;8.896;2023-03-30T01:54:23;24.47;;;17.90;;
5125;SDS011;63008;53.112;8.896;2023-03-30T01:56:47;22.90;;;17.63;;
5125;SDS011;63008;53.112;8.896;2023-03-30T01:59:28;23.03;;;18.17;;
5125;SDS011;63008;53.112;8.896;2023-03-30T02:01:26;20.20;;;15.63;;
5125;SDS011;63008;53.112;8.896;2023-03-30T02:03:30;19.87;;;16.23;;
5125;SDS011;63008;53.112;8.896;2023-03-30T02:05:33;21.10;;;16.10;;
5125;SDS011;63008;53.112;8.896;2023-03-30T02:07:35;22.80;;;17.77;;
5125;SDS011;63008;53.112;8.896;2023-03-30T02:09:39;24.37;;;15.87;;
5125;SDS011;63008;53.112;8.896;2023-03-30T02:11:42;18.83;;;15.53;;
5125;SDS011;63008;53.112;8.896;2023-03-30T02:13:47;19.80;;;16.37;;
5125;SDS011;63008;53.112;8.896;2023-03-30T02:15:52;22.87;;;16.40;;
5125;SDS011;63008;53.112;8.896;2023-03-30T02:17:59;18.53;;;15.53;;
5125;SDS011;63008;53.112;8.896;2023-03-30T02:20:00;21.33;;;15.53;;
5125;SDS011;63008;53.112;8.896;2023-03-30T02:22:01;17.80;;;13.53;;
5125;SDS011;63008;53.112;8.896;2023-03-30T02:24:03;21.50;;;14.37;;
5125;SDS011;63008;53.112;8.896;2023-03-30T02:26:07;20.93;;;15.57;;
5125;SDS011;63008;53.112;8.896;2023-03-30T02:30:12;18.60;;;14.03;;
5125;SDS011;63008;53.112;8.896;2023-03-30T02:32:18;16.77;;;14.40;;
5125;SDS011;63008;53.112;8.896;2023-03-30T02:46:38;15.17;;;12.40;;
5125;SDS011;63008;53.112;8.896;2023-03-30T02:49:10;13.23;;;11.70;;
5125;SDS011;63008;53.112;8.896;2023-03-30T02:51:34;20.53;;;12.50;;
5125;SDS011;63008;53.112;8.896;2023-03-30T02:56:33;14.00;;;12.03;;
5125;SDS011;63008;53.112;8.896;2023-03-30T02:58:48;16.23;;;12.53;;
5125;SDS011;63008;53.112;8.896;2023-03-30T03:00:57;16.80;;;12.27;;
5125;SDS011;63008;53.112;8.896;2023-03-30T03:03:09;17.57;;;13.13;;
5125;SDS011;63008;53.112;8.896;2023-03-30T03:05:16;20.23;;;12.40;;
5125;SDS011;63008;53.112;8.896;2023-03-30T03:07:19;14.40;;;12.13;;
5125;SDS011;63008;53.112;8.896;2023-03-30T03:09:21;12.30;;;10.90;;
5125;SDS011;63008;53.112;8.896;2023-03-30T03:11:25;14.27;;;12.13;;
5125;SDS011;63008;53.112;8.896;2023-03-30T03:13:26;13.17;;;11.77;;
5125;SDS011;63008;53.112;8.896;2023-03-30T03:15:27;14.30;;;11.50;;
5125;SDS011;63008;53.112;8.896;2023-03-30T03:17:28;13.70;;;10.77;;
5125;SDS011;63008;53.112;8.896;2023-03-30T03:19:34;14.80;;;12.07;;
5125;SDS011;63008;53.112;8.896;2023-03-30T03:21:35;14.40;;;11.20;;
5125;SDS011;63008;53.112;8.896;2023-03-30T03:23:36;14.80;;;11.13;;
5125;SDS011;63008;53.112;8.896;2023-03-30T03:25:37;14.53;;;11.33;;
5125;SDS011;63008;53.112;8.896;2023-03-30T03:27:38;13.13;;;10.73;;
5125;SDS011;63008;53.112;8.896;2023-03-30T03:29:39;14.70;;;10.50;;
5125;SDS011;63008;53.112;8.896;2023-03-30T03:31:40;12.23;;;10.50;;
5125;SDS011;63008;53.112;8.896;2023-03-30T03:33:41;12.13;;;9.87;;
5125;SDS011;63008;53.112;8.896;2023-03-30T03:35:42;14.97;;;10.87;;
5125;SDS011;63008;53.112;8.896;2023-03-30T03:37:45;12.30;;;11.03;;
5125;SDS011;63008;53.112;8.896;2023-03-30T03:39:46;18.77;;;10.47;;
5125;SDS011;63008;53.112;8.896;2023-03-30T03:41:47;18.87;;;10.50;;
5125;SDS011;63008;53.112;8.896;2023-03-30T03:43:48;15.57;;;10.33;;
5125;SDS011;63008;53.112;8.896;2023-03-30T03:45:49;25.07;;;10.13;;
5125;SDS011;63008;53.112;8.896;2023-03-30T03:47:52;15.87;;;9.37;;
5125;SDS011;63008;53.112;8.896;2023-03-30T03:49:53;12.20;;;9.40;;
5125;SDS011;63008;53.112;8.896;2023-03-30T03:51:54;13.43;;;9.30;;
5125;SDS011;63008;53.112;8.896;2023-03-30T03:53:55;11.17;;;8.97;;
5125;SDS011;63008;53.112;8.896;2023-03-30T03:55:56;13.50;;;8.80;;
5125;SDS011;63008;53.112;8.896;2023-03-30T03:57:57;12.60;;;8.90;;
5125;SDS011;63008;53.112;8.896;2023-03-30T03:59:58;14.20;;;9.50;;
5125;SDS011;63008;53.112;8.896;2023-03-30T04:01:59;9.07;;;8.17;;
5125;SDS011;63008;53.112;8.896;2023-03-30T04:04:00;11.70;;;7.57;;
5125;SDS011;63008;53.112;8.896;2023-03-30T04:06:01;14.07;;;8.07;;
5125;SDS011;63008;53.112;8.896;2023-03-30T04:08:02;15.83;;;7.90;;
5125;SDS011;63008;53.112;8.896;2023-03-30T04:10:03;9.07;;;7.90;;
5125;SDS011;63008;53.112;8.896;2023-03-30T04:12:06;9.87;;;7.97;;
5125;SDS011;63008;53.112;8.896;2023-03-30T04:14:07;9.37;;;7.50;;
5125;SDS011;63008;53.112;8.896;2023-03-30T04:16:08;12.97;;;7.90;;
5125;SDS011;63008;53.112;8.896;2023-03-30T04:18:10;10.93;;;7.67;;
5125;SDS011;63008;53.112;8.896;2023-03-30T04:20:11;15.63;;;7.77;;
5125;SDS011;63008;53.112;8.896;2023-03-30T04:22:12;9.07;;;7.47;;
5125;SDS011;63008;53.112;8.896;2023-03-30T04:24:13;15.00;;;7.13;;
5125;SDS011;63008;53.112;8.896;2023-03-30T04:26:14;9.70;;;7.03;;
5125;SDS011;63008;53.112;8.896;2023-03-30T04:28:16;12.73;;;7.67;;
5125;SDS011;63008;53.112;8.896;2023-03-30T04:30:21;8.53;;;7.00;;
5125;SDS011;63008;53.112;8.896;2023-03-30T04:32:23;10.70;;;7.10;;
5125;SDS011;63008;53.112;8.896;2023-03-30T04:34:24;9.87;;;7.47;;
5125;SDS011;63008;53.112;8.896;2023-03-30T04:36:26;9.63;;;7.47;;
5125;SDS011;63008;53.112;8.896;2023-03-30T04:38:27;10.40;;;7.13;;
5125;SDS011;63008;53.112;8.896;2023-03-30T04:40:29;19.00;;;7.60;;
5125;SDS011;63008;53.112;8.896;2023-03-30T04:42:30;9.30;;;8.10;;
5125;SDS011;63008;53.112;8.896;2023-03-30T04:44:33;13.37;;;7.70;;
5125;SDS011;63008;53.112;8.896;2023-03-30T04:46:35;12.90;;;7.37;;
5125;SDS011;63008;53.112;8.896;2023-03-30T04:48:36;11.10;;;7.60;;
5125;SDS011;63008;53.112;8.896;2023-03-30T04:50:37;12.30;;;7.60;;
5125;SDS011;63008;53.112;8.896;2023-03-30T04:52:38;14.37;;;8.57;;
5125;SDS011;63008;53.112;8.896;2023-03-30T04:54:38;13.60;;;7.43;;
5125;SDS011;63008;53.112;8.896;2023-03-30T04:56:39;11.07;;;7.00;;
5125;SDS011;63008;53.112;8.896;2023-03-30T04:58:41;16.80;;;6.73;;
5125;SDS011;63008;53.112;8.896;2023-03-30T05:00:42;10.40;;;6.77;;
5125;SDS011;63008;53.112;8.896;2023-03-30T05:02:43;9.80;;;7.80;;
5125;SDS011;63008;53.112;8.896;2023-03-30T05:04:44;12.70;;;7.10;;
5125;SDS011;63008;53.112;8.896;2023-03-30T05:06:45;14.60;;;6.00;;
5125;SDS011;63008;53.112;8.896;2023-03-30T05:08:49;11.07;;;6.33;;
5125;SDS011;63008;53.112;8.896;2023-03-30T05:10:50;9.20;;;6.20;;
5125;SDS011;63008;53.112;8.896;2023-03-30T05:12:54;14.93;;;5.83;;
5125;SDS011;63008;53.112;8.896;2023-03-30T05:14:55;8.60;;;5.83;;
5125;SDS011;63008;53.112;8.896;2023-03-30T05:16:56;9.47;;;5.40;;
5125;SDS011;63008;53.112;8.896;2023-03-30T05:18:58;11.23;;;5.63;;
5125;SDS011;63008;53.112;8.896;2023-03-30T05:20:59;9.77;;;5.10;;
5125;SDS011;63008;53.112;8.896;2023-03-30T05:23:00;5.33;;;4.83;;
5125;SDS011;63008;53.112;8.896;2023-03-30T05:25:04;5.93;;;5.03;;
5125;SDS011;63008;53.112;8.896;2023-03-30T05:27:08;6.57;;;5.20;;
5125;SDS011;63008;53.112;8.896;2023-03-30T05:29:09;9.17;;;5.47;;
5125;SDS011;63008;53.112;8.896;2023-03-30T05:31:10;8.20;;;4.40;;
5125;SDS011;63008;53.112;8.896;2023-03-30T05:33:11;12.20;;;4.80;;
5125;SDS011;63008;53.112;8.896;2023-03-30T05:35:12;5.83;;;4.57;;
5125;SDS011;63008;53.112;8.896;2023-03-30T05:37:13;6.17;;;5.30;;
5125;SDS011;63008;53.112;8.896;2023-03-30T05:39:14;8.30;;;5.10;;
5125;SDS011;63008;53.112;8.896;2023-03-30T05:41:15;7.73;;;4.00;;
5125;SDS011;63008;53.112;8.896;2023-03-30T05:43:17;6.33;;;4.93;;
5125;SDS011;63008;53.112;8.896;2023-03-30T05:45:18;7.90;;;5.10;;
5125;SDS011;63008;53.112;8.896;2023-03-30T05:47:19;10.27;;;4.67;;
5125;SDS011;63008;53.112;8.896;2023-03-30T05:49:21;8.40;;;4.20;;
5125;SDS011;63008;53.112;8.896;2023-03-30T05:51:22;4.37;;;3.73;;
5125;SDS011;63008;53.112;8.896;2023-03-30T05:53:23;5.10;;;4.20;;
5125;SDS011;63008;53.112;8.896;2023-03-30T05:55:24;5.73;;;4.00;;
5125;SDS011;63008;53.112;8.896;2023-03-30T05:57:25;11.37;;;4.07;;
5125;SDS011;63008;53.112;8.896;2023-03-30T05:59:26;6.77;;;4.07;;
5125;SDS011;63008;53.112;8.896;2023-03-30T06:01:27;9.53;;;3.97;;
5125;SDS011;63008;53.112;8.896;2023-03-30T06:03:28;4.20;;;3.07;;
5125;SDS011;63008;53.112;8.896;2023-03-30T06:05:29;13.50;;;3.97;;
5125;SDS011;63008;53.112;8.896;2023-03-30T06:07:33;4.20;;;3.80;;
5125;SDS011;63008;53.112;8.896;2023-03-30T06:09:34;8.80;;;3.90;;
5125;SDS011;63008;53.112;8.896;2023-03-30T06:11:35;5.00;;;3.70;;
5125;SDS011;63008;53.112;8.896;2023-03-30T06:13:36;6.87;;;4.10;;
5125;SDS011;63008;53.112;8.896;2023-03-30T06:15:37;5.20;;;3.80;;
5125;SDS011;63008;53.112;8.896;2023-03-30T06:17:38;8.40;;;3.37;;
5125;SDS011;63008;53.112;8.896;2023-03-30T06:19:39;5.60;;;4.00;;
5125;SDS011;63008;53.112;8.896;2023-03-30T06:21:40;7.87;;;3.70;;
5125;SDS011;63008;53.112;8.896;2023-03-30T06:23:41;10.37;;;4.10;;
5125;SDS011;63008;53.112;8.896;2023-03-30T06:25:46;7.20;;;3.53;;
5125;SDS011;63008;53.112;8.896;2023-03-30T06:27:52;7.97;;;3.97;;
5125;SDS011;63008;53.112;8.896;2023-03-30T06:29:52;5.27;;;3.63;;
5125;SDS011;63008;53.112;8.896;2023-03-30T06:31:53;7.10;;;3.80;;
5125;SDS011;63008;53.112;8.896;2023-03-30T06:33:55;5.80;;;3.40;;
5125;SDS011;63008;53.112;8.896;2023-03-30T06:35:56;4.53;;;3.33;;
5125;SDS011;63008;53.112;8.896;2023-03-30T06:37:57;4.90;;;3.00;;
5125;SDS011;63008;53.112;8.896;2023-03-30T06:39:58;5.47;;;4.03;;
5125;SDS011;63008;53.112;8.896;2023-03-30T06:41:59;6.33;;;3.30;;
5125;SDS011;63008;53.112;8.896;2023-03-30T06:44:00;6.13;;;3.40;;
5125;SDS011;63008;53.112;8.896;2023-03-30T06:46:01;6.70;;;4.27;;
5125;SDS011;63008;53.112;8.896;2023-03-30T06:48:03;6.70;;;3.90;;
5125;SDS011;63008;53.112;8.896;2023-03-30T06:50:04;7.77;;;4.23;;
5125;SDS011;63008;53.112;8.896;2023-03-30T06:52:06;8.10;;;3.67;;
5125;SDS011;63008;53.112;8.896;2023-03-30T06:54:06;5.30;;;3.47;;
5125;SDS011;63008;53.112;8.896;2023-03-30T06:56:08;5.90;;;3.50;;
5125;SDS011;63008;53.112;8.896;2023-03-30T06:58:09;10.93;;;4.00;;
5125;SDS011;63008;53.112;8.896;2023-03-30T07:00:10;5.07;;;3.13;;
5125;SDS011;63008;53.112;8.896;2023-03-30T07:02:14;5.20;;;2.90;;
5125;SDS011;63008;53.112;8.896;2023-03-30T07:04:16;9.20;;;3.77;;
5125;SDS011;63008;53.112;8.896;2023-03-30T07:06:17;6.00;;;3.50;;
5125;SDS011;63008;53.112;8.896;2023-03-30T07:08:19;9.30;;;3.90;;
5125;SDS011;63008;53.112;8.896;2023-03-30T07:10:21;5.70;;;3.57;;
5125;SDS011;63008;53.112;8.896;2023-03-30T07:12:22;11.33;;;4.20;;
5125;SDS011;63008;53.112;8.896;2023-03-30T07:14:23;16.63;;;4.13;;
5125;SDS011;63008;53.112;8.896;2023-03-30T07:16:24;7.63;;;3.40;;
5125;SDS011;63008;53.112;8.896;2023-03-30T07:18:25;9.77;;;2.90;;
5125;SDS011;63008;53.112;8.896;2023-03-30T07:20:26;3.83;;;3.40;;
5125;SDS011;63008;53.112;8.896;2023-03-30T07:22:27;6.37;;;3.07;;
5125;SDS011;63008;53.112;8.896;2023-03-30T07:24:28;6.93;;;2.90;;
5125;SDS011;63008;53.112;8.896;2023-03-30T07:26:30;4.00;;;3.00;;
5125;SDS011;63008;53.112;8.896;2023-03-30T07:28:31;6.53;;;3.07;;
5125;SDS011;63008;53.112;8.896;2023-03-30T07:30:33;3.83;;;3.40;;
5125;SDS011;63008;53.112;8.896;2023-03-30T07:32:35;4.20;;;2.90;;
5125;SDS011;63008;53.112;8.896;2023-03-30T07:34:39;12.67;;;3.30;;
5125;SDS011;63008;53.112;8.896;2023-03-30T07:36:40;8.40;;;3.33;;
5125;SDS011;63008;53.112;8.896;2023-03-30T07:38:41;6.60;;;2.73;;
5125;SDS011;63008;53.112;8.896;2023-03-30T07:40:42;11.57;;;2.90;;
5125;SDS011;63008;53.112;8.896;2023-03-30T07:42:43;5.17;;;2.57;;
5125;SDS011;63008;53.112;8.896;2023-03-30T07:44:47;4.37;;;2.43;;
5125;SDS011;63008;53.112;8.896;2023-03-30T07:46:48;3.97;;;3.00;;
5125;SDS011;63008;53.112;8.896;2023-03-30T07:48:49;8.40;;;3.40;;
5125;SDS011;63008;53.112;8.896;2023-03-30T07:50:57;7.90;;;2.73;;
5125;SDS011;63008;53.112;8.896;2023-03-30T07:53:03;4.17;;;2.60;;
5125;SDS011;63008;53.112;8.896;2023-03-30T07:55:04;4.90;;;3.13;;
5125;SDS011;63008;53.112;8.896;2023-03-30T07:57:05;4.97;;;2.87;;
5125;SDS011;63008;53.112;8.896;2023-03-30T07:59:06;7.83;;;2.97;;
5125;SDS011;63008;53.112;8.896;2023-03-30T08:01:10;11.33;;;3.37;;
5125;SDS011;63008;53.112;8.896;2023-03-30T08:03:11;5.43;;;2.60;;
5125;SDS011;63008;53.112;8.896;2023-03-30T08:05:12;6.17;;;3.20;;
5125;SDS011;63008;53.112;8.896;2023-03-30T08:07:15;5.27;;;2.80;;
5125;SDS011;63008;53.112;8.896;2023-03-30T08:09:16;7.80;;;2.50;;
5125;SDS011;63008;53.112;8.896;2023-03-30T08:11:17;4.93;;;2.00;;
5125;SDS011;63008;53.112;8.896;2023-03-30T08:13:19;6.87;;;2.40;;
5125;SDS011;63008;53.112;8.896;2023-03-30T08:15:20;4.10;;;2.20;;
5125;SDS011;63008;53.112;8.896;2023-03-30T08:17:21;3.43;;;2.23;;
5125;SDS011;63008;53.112;8.896;2023-03-30T08:19:22;7.93;;;2.60;;
5125;SDS011;63008;53.112;8.896;2023-03-30T08:21:24;5.20;;;2.40;;
5125;SDS011;63008;53.112;8.896;2023-03-30T08:23:25;5.47;;;2.00;;
5125;SDS011;63008;53.112;8.896;2023-03-30T08:25:26;3.73;;;2.13;;
5125;SDS011;63008;53.112;8.896;2023-03-30T08:27:27;4.53;;;2.33;;
5125;SDS011;63008;53.112;8.896;2023-03-30T08:29:28;4.50;;;2.67;;
5125;SDS011;63008;53.112;8.896;2023-03-30T08:31:31;7.70;;;3.00;;
5125;SDS011;63008;53.112;8.896;2023-03-30T08:33:32;3.93;;;2.73;;
5125;SDS011;63008;53.112;8.896;2023-03-30T08:35:34;7.57;;;2.30;;
5125;SDS011;63008;53.112;8.896;2023-03-30T08:37:35;6.67;;;2.10;;
5125;SDS011;63008;53.112;8.896;2023-03-30T08:39:36;8.10;;;2.20;;
5125;SDS011;63008;53.112;8.896;2023-03-30T08:43:51;3.37;;;2.60;;
5125;SDS011;63008;53.112;8.896;2023-03-30T08:45:59;9.23;;;2.27;;
5125;SDS011;63008;53.112;8.896;2023-03-30T08:48:01;4.40;;;2.77;;
5125;SDS011;63008;53.112;8.896;2023-03-30T08:52:13;2.80;;;1.90;;
5125;SDS011;63008;53.112;8.896;2023-03-30T08:54:22;6.17;;;2.07;;
5125;SDS011;63008;53.112;8.896;2023-03-30T08:56:29;4.20;;;1.63;;
5125;SDS011;63008;53.112;8.896;2023-03-30T09:00:54;7.00;;;2.27;;
5125;SDS011;63008;53.112;8.896;2023-03-30T09:03:05;2.87;;;1.57;;
5125;SDS011;63008;53.112;8.896;2023-03-30T09:05:21;5.97;;;1.80;;
5125;SDS011;63008;53.112;8.896;2023-03-30T09:07:42;2.30;;;1.90;;
5125;SDS011;63008;53.112;8.896;2023-03-30T09:09:52;2.90;;;1.50;;
5125;SDS011;63008;53.112;8.896;2023-03-30T09:11:58;3.30;;;1.90;;
5125;SDS011;63008;53.112;8.896;2023-03-30T09:14:11;3.30;;;1.83;;
5125;SDS011;63008;53.112;8.896;2023-03-30T09:16:20;2.73;;;1.80;;
5125;SDS011;63008;53.112;8.896;2023-03-30T09:18:33;6.90;;;2.00;;
5125;SDS011;63008;53.112;8.896;2023-03-30T09:20:37;4.80;;;1.47;;
5125;SDS011;63008;53.112;8.896;2023-03-30T09:22:41;5.87;;;1.73;;
5125;SDS011;63008;53.112;8.896;2023-03-30T09:24:43;5.83;;;1.80;;
5125;SDS011;63008;53.112;8.896;2023-03-30T09:26:48;2.50;;;1.50;;
5125;SDS011;63008;53.112;8.896;2023-03-30T09:28:58;7.77;;;1.90;;
5125;SDS011;63008;53.112;8.896;2023-03-30T09:33:30;5.97;;;1.93;;
5125;SDS011;63008;53.112;8.896;2023-03-30T09:35:58;6.20;;;1.93;;
5125;SDS011;63008;53.112;8.896;2023-03-30T09:38:08;4.73;;;1.50;;
5125;SDS011;63008;53.112;8.896;2023-03-30T09:42:45;3.30;;;1.80;;
5125;SDS011;63008;53.112;8.896;2023-03-30T09:45:26;5.30;;;1.60;;
5125;SDS011;63008;53.112;8.896;2023-03-30T09:47:29;5.57;;;2.10;;
5125;SDS011;63008;53.112;8.896;2023-03-30T09:49:37;6.10;;;1.83;;
5125;SDS011;63008;53.112;8.896;2023-03-30T09:51:51;7.83;;;1.83;;
5125;SDS011;63008;53.112;8.896;2023-03-30T09:54:00;6.20;;;1.53;;
5125;SDS011;63008;53.112;8.896;2023-03-30T09:58:28;6.53;;;1.47;;
5125;SDS011;63008;53.112;8.896;2023-03-30T10:00:31;5.37;;;1.73;;
5125;SDS011;63008;53.112;8.896;2023-03-30T10:02:33;5.17;;;1.60;;
5125;SDS011;63008;53.112;8.896;2023-03-30T10:04:42;9.10;;;2.37;;
5125;SDS011;63008;53.112;8.896;2023-03-30T10:06:54;6.53;;;1.73;;
5125;SDS011;63008;53.112;8.896;2023-03-30T10:08:55;7.80;;;1.87;;
5125;SDS011;63008;53.112;8.896;2023-03-30T10:10:57;5.03;;;1.70;;
5125;SDS011;63008;53.112;8.896;2023-03-30T10:13:04;4.07;;;1.60;;
5125;SDS011;63008;53.112;8.896;2023-03-30T10:15:13;4.10;;;1.70;;
5125;SDS011;63008;53.112;8.896;2023-03-30T10:17:20;7.40;;;2.17;;
5125;SDS011;63008;53.112;8.896;2023-03-30T10:19:24;12.37;;;2.53;;
5125;SDS011;63008;53.112;8.896;2023-03-30T10:21:28;7.53;;;1.93;;
5125;SDS011;63008;53.112;8.896;2023-03-30T10:23:32;7.90;;;2.40;;
5125;SDS011;63008;53.112;8.896;2023-03-30T10:25:39;5.37;;;1.70;;
5125;SDS011;63008;53.112;8.896;2023-03-30T10:27:42;5.70;;;1.73;;
5125;SDS011;63008;53.112;8.896;2023-03-30T10:29:46;6.07;;;1.60;;
5125;SDS011;63008;53.112;8.896;2023-03-30T10:31:51;5.00;;;1.73;;
5125;SDS011;63008;53.112;8.896;2023-03-30T10:33:59;7.77;;;1.60;;
5125;SDS011;63008;53.112;8.896;2023-03-30T10:36:02;4.57;;;1.60;;
5125;SDS011;63008;53.112;8.896;2023-03-30T10:38:03;8.23;;;1.90;;
5125;SDS011;63008;53.112;8.896;2023-03-30T10:40:14;4.27;;;1.60;;
5125;SDS011;63008;53.112;8.896;2023-03-30T10:42:20;11.27;;;2.37;;
5125;SDS011;63008;53.112;8.896;2023-03-30T10:44:35;6.40;;;1.90;;
5125;SDS011;63008;53.112;8.896;2023-03-30T10:46:41;5.73;;;1.80;;
5125;SDS011;63008;53.112;8.896;2023-03-30T10:56:33;11.50;;;1.80;;
5125;SDS011;63008;53.112;8.896;2023-03-30T10:58:48;5.90;;;2.03;;
5125;SDS011;63008;53.112;8.896;2023-03-30T11:01:15;5.90;;;1.73;;
5125;SDS011;63008;53.112;8.896;2023-03-30T11:03:20;5.30;;;1.77;;
5125;SDS011;63008;53.112;8.896;2023-03-30T11:05:28;5.80;;;1.87;;
5125;SDS011;63008;53.112;8.896;2023-03-30T11:07:51;7.93;;;1.70;;
5125;SDS011;63008;53.112;8.896;2023-03-30T11:09:57;12.07;;;1.77;;
5125;SDS011;63008;53.112;8.896;2023-03-30T11:12:06;8.47;;;1.60;;
5125;SDS011;63008;53.112;8.896;2023-03-30T11:14:48;9.67;;;1.53;;
5125;SDS011;63008;53.112;8.896;2023-03-30T11:16:55;7.23;;;1.80;;
5125;SDS011;63008;53.112;8.896;2023-03-30T11:19:17;4.73;;;1.57;;
5125;SDS011;63008;53.112;8.896;2023-03-30T11:24:05;6.70;;;1.57;;
5125;SDS011;63008;53.112;8.896;2023-03-30T11:26:23;6.53;;;2.07;;
5125;SDS011;63008;53.112;8.896;2023-03-30T11:28:57;7.57;;;1.80;;
5125;SDS011;63008;53.112;8.896;2023-03-30T11:31:03;14.23;;;2.80;;
5125;SDS011;63008;53.112;8.896;2023-03-30T11:33:18;7.53;;;2.27;;
5125;SDS011;63008;53.112;8.896;2023-03-30T11:35:49;7.00;;;2.00;;
5125;SDS011;63008;53.112;8.896;2023-03-30T11:37:56;7.90;;;2.43;;
5125;SDS011;63008;53.112;8.896;2023-03-30T11:40:08;11.37;;;2.60;;
5125;SDS011;63008;53.112;8.896;2023-03-30T11:42:27;6.40;;;2.27;;
5125;SDS011;63008;53.112;8.896;2023-03-30T11:44:31;6.57;;;2.40;;
5125;SDS011;63008;53.112;8.896;2023-03-30T11:49:17;13.20;;;2.40;;
5125;SDS011;63008;53.112;8.896;2023-03-30T11:53:31;11.17;;;2.57;;
5125;SDS011;63008;53.112;8.896;2023-03-30T11:58:13;10.23;;;2.33;;
5125;SDS011;63008;53.112;8.896;2023-03-30T12:00:36;15.97;;;3.40;;
5125;SDS011;63008;53.112;8.896;2023-03-30T12:05:31;7.37;;;2.10;;
5125;SDS011;63008;53.112;8.896;2023-03-30T12:07:38;8.00;;;2.97;;
5125;SDS011;63008;53.112;8.896;2023-03-30T12:09:52;16.70;;;2.83;;
5125;SDS011;63008;53.112;8.896;2023-03-30T12:11:59;19.50;;;3.27;;
5125;SDS011;63008;53.112;8.896;2023-03-30T12:16:38;10.27;;;2.30;;
5125;SDS011;63008;53.112;8.896;2023-03-30T12:21:00;15.37;;;2.73;;
5125;SDS011;63008;53.112;8.896;2023-03-30T12:23:35;19.30;;;3.20;;
5125;SDS011;63008;53.112;8.896;2023-03-30T12:28:21;9.63;;;2.50;;
5125;SDS011;63008;53.112;8.896;2023-03-30T12:30:25;10.13;;;2.53;;
5125;SDS011;63008;53.112;8.896;2023-03-30T12:32:29;14.20;;;2.60;;
5125;SDS011;63008;53.112;8.896;2023-03-30T12:34:35;8.93;;;2.60;;
5125;SDS011;63008;53.112;8.896;2023-03-30T12:36:40;11.90;;;3.63;;
5125;SDS011;63008;53.112;8.896;2023-03-30T12:38:43;9.57;;;2.00;;
5125;SDS011;63008;53.112;8.896;2023-03-30T12:40:46;9.87;;;1.90;;
5125;SDS011;63008;53.112;8.896;2023-03-30T12:43:04;7.97;;;2.23;;
5125;SDS011;63008;53.112;8.896;2023-03-30T12:49:31;5.70;;;1.97;;
5125;SDS011;63008;53.112;8.896;2023-03-30T12:51:48;11.13;;;2.30;;
5125;SDS011;63008;53.112;8.896;2023-03-30T12:54:06;5.70;;;2.10;;
5125;SDS011;63008;53.112;8.896;2023-03-30T13:03:34;13.73;;;2.20;;
5125;SDS011;63008;53.112;8.896;2023-03-30T13:05:38;12.07;;;2.17;;
5125;SDS011;63008;53.112;8.896;2023-03-30T13:07:42;7.23;;;2.20;;
5125;SDS011;63008;53.112;8.896;2023-03-30T13:12:29;10.60;;;2.00;;
5125;SDS011;63008;53.112;8.896;2023-03-30T13:18:54;7.83;;;2.50;;
5125;SDS011;63008;53.112;8.896;2023-03-30T13:23:00;9.00;;;2.20;;
5125;SDS011;63008;53.112;8.896;2023-03-30T13:25:27;14.53;;;3.03;;
5125;SDS011;63008;53.112;8.896;2023-03-30T13:27:43;5.90;;;1.80;;
5125;SDS011;63008;53.112;8.896;2023-03-30T13:29:48;7.37;;;1.93;;
5125;SDS011;63008;53.112;8.896;2023-03-30T13:32:11;10.10;;;2.07;;
5125;SDS011;63008;53.112;8.896;2023-03-30T13:39:06;12.60;;;2.07;;
5125;SDS011;63008;53.112;8.896;2023-03-30T13:43:41;6.20;;;1.57;;
5125;SDS011;63008;53.112;8.896;2023-03-30T13:45:59;4.47;;;2.17;;
5125;SDS011;63008;53.112;8.896;2023-03-30T13:50:28;13.00;;;2.83;;
5125;SDS011;63008;53.112;8.896;2023-03-30T13:52:31;10.17;;;1.73;;
5125;SDS011;63008;53.112;8.896;2023-03-30T13:54:35;7.00;;;2.03;;
5125;SDS011;63008;53.112;8.896;2023-03-30T13:56:40;7.30;;;2.00;;
5125;SDS011;63008;53.112;8.896;2023-03-30T13:58:53;6.70;;;1.87;;
5125;SDS011;63008;53.112;8.896;2023-03-30T14:01:08;10.70;;;2.43;;
5125;SDS011;63008;53.112;8.896;2023-03-30T14:05:34;10.50;;;1.70;;
5125;SDS011;63008;53.112;8.896;2023-03-30T14:07:39;9.53;;;2.53;;
5125;SDS011;63008;53.112;8.896;2023-03-30T14:09:43;7.17;;;2.60;;
5125;SDS011;63008;53.112;8.896;2023-03-30T14:12:01;7.07;;;1.77;;
5125;SDS011;63008;53.112;8.896;2023-03-30T14:14:04;10.10;;;2.10;;
5125;SDS011;63008;53.112;8.896;2023-03-30T14:16:06;11.03;;;2.33;;
5125;SDS011;63008;53.112;8.896;2023-03-30T14:18:12;13.40;;;2.70;;
5125;SDS011;63008;53.112;8.896;2023-03-30T14:20:24;6.70;;;1.60;;